Time;durP1;ratioP1;P1;durP2;ratioP2;P2;SDS_P1;SDS_P2;PMS_P1;PMS_P2;Temp;Humidity;BMP_temperature;BMP_pressure;BME280_temperature;BME280_humidity;BME280_pressure;Samples;Min_cycle;Max_cycle;Signal;HPM_P1;HPM_P2
2021/06/13 00:02:18;;;;;;;14.40;7.47;;;13.50;97.60;;;;;;5108969;28;20491;-39
2021/06/13 00:04:43;;;;;;;15.77;7.57;;;13.50;97.70;;;;;;5110392;28;20650;-38
2021/06/13 00:07:09;;;;;;;16.30;8.25;;;13.50;97.90;;;;;;5109868;28;20607;-39
2021/06/13 00:09:35;;;;;;;11.82;6.90;;;13.50;97.80;;;;;;5109919;28;20126;-39
2021/06/13 00:12:00;;;;;;;14.00;7.15;;;13.50;97.70;;;;;;5109786;28;20098;-38
2021/06/13 00:14:26;;;;;;;16.00;7.70;;;13.50;97.80;;;;;;5110436;28;20055;-35
2021/06/13 00:16:52;;;;;;;16.38;8.35;;;13.50;97.70;;;;;;5109986;28;20113;-36
2021/06/13 00:19:21;;;;;;;13.75;7.40;;;13.40;97.90;;;;;;5109856;28;20050;-41
2021/06/13 00:21:47;;;;;;;11.75;6.88;;;13.40;97.70;;;;;;5109689;28;20015;-42
2021/06/13 00:24:13;;;;;;;12.73;7.18;;;13.40;97.60;;;;;;5109500;28;20366;-46
2021/06/13 00:26:39;;;;;;;12.40;6.15;;;13.40;97.60;;;;;;5110225;28;20038;-39
2021/06/13 00:29:05;;;;;;;15.00;8.27;;;13.50;97.50;;;;;;5109036;28;20043;-39
2021/06/13 00:31:33;;;;;;;17.65;8.93;;;13.50;98.10;;;;;;5110055;28;20103;-40
2021/06/13 00:34:01;;;;;;;15.25;7.60;;;13.40;98.40;;;;;;5109377;28;20016;-38
2021/06/13 00:36:27;;;;;;;17.63;8.25;;;13.40;98.20;;;;;;5109964;28;20019;-39
2021/06/13 00:38:53;;;;;;;14.25;8.15;;;13.30;98.50;;;;;;5108920;28;20031;-40
2021/06/13 00:41:21;;;;;;;16.25;8.32;;;13.30;98.90;;;;;;5110176;28;20012;-40
2021/06/13 00:43:47;;;;;;;16.60;8.00;;;13.20;98.90;;;;;;5109588;27;20035;-40
2021/06/13 00:46:13;;;;;;;16.45;8.68;;;13.20;98.80;;;;;;5108693;28;20408;-40
2021/06/13 00:48:38;;;;;;;17.20;8.73;;;13.20;98.90;;;;;;5109653;28;20125;-40
2021/06/13 00:51:05;;;;;;;12.13;7.88;;;13.20;99.00;;;;;;5108938;28;20381;-39
2021/06/13 00:53:30;;;;;;;17.42;8.02;;;13.10;99.00;;;;;;5109020;28;20130;-39
2021/06/13 00:55:57;;;;;;;17.33;8.38;;;13.10;99.00;;;;;;5109611;28;20169;-39
2021/06/13 00:58:23;;;;;;;12.80;7.43;;;13.10;99.00;;;;;;5108531;28;20026;-43
2021/06/13 01:00:52;;;;;;;16.55;7.97;;;13.10;98.90;;;;;;5109146;28;20027;-36
2021/06/13 01:03:19;;;;;;;14.20;8.20;;;13.10;99.00;;;;;;5109453;28;20096;-39
2021/06/13 01:05:45;;;;;;;18.67;8.20;;;13.10;99.10;;;;;;5104827;28;20034;-39
2021/06/13 01:08:39;;;;;;;14.88;7.88;;;13.10;99.00;;;;;;5109417;28;20104;-40
2021/06/13 01:11:45;;;;;;;18.42;9.63;;;13.10;99.20;;;;;;5107207;28;20103;-40
2021/06/13 01:14:20;;;;;;;17.10;9.15;;;13.10;99.80;;;;;;5107666;28;20324;-39
2021/06/13 01:17:09;;;;;;;15.77;9.32;;;13.00;99.70;;;;;;5108683;28;20409;-37
2021/06/13 01:20:08;;;;;;;16.17;9.13;;;12.90;99.80;;;;;;5108641;28;20015;-39
2021/06/13 01:23:09;;;;;;;19.73;9.48;;;12.90;99.80;;;;;;5108601;27;20036;-43
2021/06/13 01:25:57;;;;;;;17.90;9.45;;;12.90;99.90;;;;;;5108283;28;20122;-40
2021/06/13 01:28:37;;;;;;;20.33;8.55;;;12.80;99.90;;;;;;5088105;28;20024;-39
2021/06/13 01:31:03;;;;;;;12.77;8.15;;;12.80;99.90;;;;;;5104854;28;20044;-40
2021/06/13 01:33:32;;;;;;;19.20;8.55;;;12.80;99.90;;;;;;5108056;28;20065;-39
2021/06/13 01:36:01;;;;;;;17.02;8.88;;;12.80;99.90;;;;;;5107803;28;20110;-37
2021/06/13 01:38:28;;;;;;;17.20;8.98;;;12.90;99.90;;;;;;5108396;28;20453;-38
2021/06/13 01:40:55;;;;;;;18.70;9.32;;;12.80;99.90;;;;;;5107630;28;20107;-39
2021/06/13 01:43:23;;;;;;;17.38;9.35;;;12.80;99.90;;;;;;5108290;28;20024;-39
2021/06/13 01:45:53;;;;;;;16.48;8.65;;;12.80;99.90;;;;;;5107788;28;20103;-40
2021/06/13 01:48:18;;;;;;;12.93;7.30;;;12.80;99.90;;;;;;5108119;28;20031;-39
2021/06/13 01:50:45;;;;;;;18.65;9.70;;;12.90;99.90;;;;;;5107917;28;20057;-40
2021/06/13 01:53:13;;;;;;;18.25;9.30;;;12.80;99.90;;;;;;5108286;28;20024;-38
2021/06/13 01:55:44;;;;;;;16.63;9.63;;;12.90;99.90;;;;;;5107649;28;20016;-40
2021/06/13 01:58:13;;;;;;;16.38;7.97;;;12.80;99.90;;;;;;5107452;28;20034;-39
2021/06/13 02:00:39;;;;;;;19.70;9.23;;;12.80;99.90;;;;;;5108238;28;20031;-35
2021/06/13 02:03:06;;;;;;;21.92;10.07;;;12.80;99.90;;;;;;5096408;28;20073;-39
2021/06/13 02:05:33;;;;;;;17.00;8.55;;;12.80;99.90;;;;;;5107855;28;20043;-39
2021/06/13 02:07:59;;;;;;;24.30;9.57;;;12.70;99.90;;;;;;5107156;28;20104;-40
2021/06/13 02:10:27;;;;;;;24.90;10.10;;;12.70;99.90;;;;;;5107235;28;20066;-39
2021/06/13 02:12:55;;;;;;;13.93;8.70;;;12.70;99.90;;;;;;5107736;28;20015;-37
2021/06/13 02:15:24;;;;;;;15.13;8.50;;;12.70;99.90;;;;;;5108344;28;20011;-39
2021/06/13 02:17:51;;;;;;;14.65;7.65;;;12.70;99.90;;;;;;5107069;28;20132;-37
2021/06/13 02:20:27;;;;;;;21.30;9.90;;;12.70;99.90;;;;;;5107214;28;20476;-38
2021/06/13 02:22:53;;;;;;;18.35;9.70;;;12.70;99.90;;;;;;5106101;27;20031;-38
2021/06/13 02:25:21;;;;;;;20.52;10.43;;;12.70;99.90;;;;;;5106727;28;20051;-38
2021/06/13 02:27:48;;;;;;;20.70;9.57;;;12.60;99.90;;;;;;5107473;28;20026;-38
2021/06/13 02:30:17;;;;;;;16.00;8.38;;;12.60;99.90;;;;;;5106784;28;20089;-38
2021/06/13 02:32:43;;;;;;;14.68;8.50;;;12.60;99.90;;;;;;5107115;28;20047;-39
2021/06/13 02:35:10;;;;;;;12.77;6.57;;;12.60;99.90;;;;;;5107207;28;20039;-39
2021/06/13 02:37:38;;;;;;;10.68;7.03;;;12.60;99.90;;;;;;5106742;28;20027;-36
2021/06/13 02:40:07;;;;;;;13.50;7.68;;;12.60;99.90;;;;;;5106978;28;20454;-39
2021/06/13 02:42:32;;;;;;;14.85;7.78;;;12.70;99.90;;;;;;5106949;28;20111;-38
2021/06/13 02:44:58;;;;;;;15.48;7.35;;;12.70;99.90;;;;;;5106425;28;20107;-39
2021/06/13 02:47:23;;;;;;;13.90;7.25;;;12.70;99.90;;;;;;5107189;28;20482;-39
2021/06/13 02:49:52;;;;;;;10.93;6.82;;;12.70;99.90;;;;;;5106709;28;20035;-39
2021/06/13 02:52:47;;;;;;;12.00;7.40;;;12.70;99.90;;;;;;5106235;28;20030;-39
2021/06/13 02:55:24;;;;;;;12.82;6.78;;;12.70;99.90;;;;;;5099373;28;20886;-39
2021/06/13 02:58:06;;;;;;;15.20;6.80;;;12.70;99.90;;;;;;5106711;28;20031;-39
2021/06/13 03:00:32;;;;;;;9.07;6.03;;;12.60;99.90;;;;;;5106820;28;20359;-39
2021/06/13 03:02:59;;;;;;;15.15;7.30;;;12.70;99.90;;;;;;5107004;28;20251;-39
2021/06/13 03:05:27;;;;;;;10.05;6.25;;;12.70;99.90;;;;;;5107019;28;20024;-38
2021/06/13 03:07:56;;;;;;;13.77;7.03;;;12.60;99.90;;;;;;5106769;28;20184;-39
2021/06/13 03:10:22;;;;;;;16.38;9.15;;;12.60;99.90;;;;;;5096007;28;20043;-38
2021/06/13 03:12:51;;;;;;;19.73;8.55;;;12.60;99.90;;;;;;5106050;28;20058;-39
2021/06/13 03:15:17;;;;;;;15.52;8.52;;;12.50;99.90;;;;;;5106824;28;20016;-40
2021/06/13 03:17:43;;;;;;;16.48;7.93;;;12.50;99.90;;;;;;5106706;28;20348;-39
2021/06/13 03:20:11;;;;;;;17.67;7.82;;;12.40;99.90;;;;;;5106313;28;20068;-39
2021/06/13 03:22:40;;;;;;;14.35;8.00;;;12.50;99.90;;;;;;5107224;28;20043;-40
2021/06/13 03:25:08;;;;;;;10.63;6.43;;;12.50;99.90;;;;;;5106658;28;20124;-39
2021/06/13 03:27:37;;;;;;;13.90;7.43;;;12.50;99.90;;;;;;5106618;28;20032;-40
2021/06/13 03:30:03;;;;;;;13.60;7.65;;;12.40;99.90;;;;;;5106226;28;20114;-39
2021/06/13 03:32:29;;;;;;;14.40;7.35;;;12.40;99.90;;;;;;5107424;28;20019;-40
2021/06/13 03:34:55;;;;;;;19.42;8.07;;;12.40;99.90;;;;;;5105089;28;20024;-42
2021/06/13 03:37:21;;;;;;;14.75;7.85;;;12.50;99.90;;;;;;5110642;28;20450;-38
2021/06/13 03:39:47;;;;;;;12.68;7.60;;;12.40;99.90;;;;;;5110428;28;20355;-40
2021/06/13 03:42:14;;;;;;;18.65;7.68;;;12.40;99.90;;;;;;5110078;28;20797;-39
2021/06/13 03:44:41;;;;;;;14.90;7.22;;;12.40;99.90;;;;;;5110850;28;20023;-39
2021/06/13 03:47:08;;;;;;;10.05;6.53;;;12.40;99.90;;;;;;5110063;28;20118;-39
2021/06/13 03:49:38;;;;;;;10.93;6.30;;;12.40;99.90;;;;;;5110647;28;20027;-38
2021/06/13 03:52:04;;;;;;;12.95;8.13;;;12.40;99.90;;;;;;5110397;28;20024;-40
2021/06/13 03:54:30;;;;;;;16.10;8.25;;;12.40;99.90;;;;;;5110052;28;20092;-39
2021/06/13 03:57:01;;;;;;;14.63;7.32;;;12.40;99.90;;;;;;5110281;28;20087;-39
2021/06/13 03:59:29;;;;;;;14.87;8.50;;;12.30;99.90;;;;;;5110484;28;20024;-39
2021/06/13 04:01:56;;;;;;;17.45;8.85;;;12.30;99.90;;;;;;5109467;28;20574;-40
2021/06/13 04:04:23;;;;;;;14.75;8.18;;;12.30;99.90;;;;;;5110622;28;20419;-39
2021/06/13 04:06:49;;;;;;;15.82;9.02;;;12.30;99.90;;;;;;5106729;28;20019;-39
2021/06/13 04:09:19;;;;;;;18.45;8.23;;;12.30;99.90;;;;;;5109707;28;20374;-39
2021/06/13 04:11:46;;;;;;;15.15;8.00;;;12.30;99.90;;;;;;5109962;28;20053;-39
2021/06/13 04:14:12;;;;;;;13.82;7.10;;;12.30;99.90;;;;;;5110432;28;20162;-39
2021/06/13 04:16:40;;;;;;;12.32;7.50;;;12.30;99.90;;;;;;5110151;28;20012;-39
2021/06/13 04:19:09;;;;;;;18.20;8.27;;;12.40;99.90;;;;;;5110108;27;20030;-38
2021/06/13 04:21:35;;;;;;;13.93;7.13;;;12.40;99.90;;;;;;5110043;27;20427;-37
2021/06/13 04:24:02;;;;;;;13.07;7.43;;;12.40;99.90;;;;;;5109321;28;20303;-39
2021/06/13 04:26:29;;;;;;;13.45;7.78;;;12.40;99.90;;;;;;5110274;28;20462;-39
2021/06/13 04:28:55;;;;;;;17.83;9.65;;;12.40;99.90;;;;;;5109726;28;20047;-43
2021/06/13 04:31:21;;;;;;;18.23;9.35;;;12.40;99.90;;;;;;5109953;28;20023;-38
2021/06/13 04:33:49;;;;;;;16.88;8.25;;;12.40;99.90;;;;;;5109800;28;20092;-38
2021/06/13 04:36:17;;;;;;;15.82;7.28;;;12.40;99.90;;;;;;5108801;28;20023;-38
2021/06/13 04:38:42;;;;;;;12.52;7.35;;;12.50;99.90;;;;;;5110256;28;20130;-39
2021/06/13 04:41:09;;;;;;;13.05;7.00;;;12.50;99.90;;;;;;5109656;28;20106;-39
2021/06/13 04:43:36;;;;;;;13.65;6.78;;;12.50;99.90;;;;;;5109997;28;20019;-39
2021/06/13 04:46:03;;;;;;;12.32;6.30;;;12.60;99.90;;;;;;5109432;28;20008;-39
2021/06/13 04:48:29;;;;;;;15.85;7.70;;;12.70;99.90;;;;;;5108741;28;20023;-39
2021/06/13 04:51:00;;;;;;;13.85;7.47;;;12.70;99.90;;;;;;5108660;28;20058;-38
2021/06/13 04:53:52;;;;;;;17.48;7.78;;;12.70;99.90;;;;;;5107083;28;20461;-37
2021/06/13 04:56:42;;;;;;;10.38;6.78;;;12.70;99.90;;;;;;5077637;28;20452;-39
2021/06/13 04:59:08;;;;;;;10.65;5.97;;;12.80;99.90;;;;;;5081727;28;20044;-40
2021/06/13 05:01:34;;;;;;;10.10;5.88;;;12.80;99.90;;;;;;5108895;28;20389;-38
2021/06/13 05:04:08;;;;;;;16.55;6.85;;;12.90;99.90;;;;;;5109746;28;20027;-40
2021/06/13 05:06:34;;;;;;;12.93;5.85;;;12.90;99.90;;;;;;5109198;27;20396;-39
2021/06/13 05:09:00;;;;;;;12.80;6.10;;;12.90;99.90;;;;;;5108753;28;20121;-39
2021/06/13 05:11:25;;;;;;;11.85;6.25;;;13.00;99.90;;;;;;5109336;28;20027;-40
2021/06/13 05:13:52;;;;;;;12.88;6.18;;;13.00;99.90;;;;;;5108356;28;20051;-40
2021/06/13 05:16:17;;;;;;;11.40;6.05;;;13.10;99.90;;;;;;5109168;28;20015;-39
2021/06/13 05:18:43;;;;;;;12.63;6.15;;;13.10;99.90;;;;;;5108954;28;20207;-38
2021/06/13 05:21:09;;;;;;;12.60;6.47;;;13.20;99.90;;;;;;5109161;28;20232;-40
2021/06/13 05:23:35;;;;;;;11.57;6.53;;;13.20;99.90;;;;;;5108834;28;20068;-41
2021/06/13 05:26:00;;;;;;;9.32;5.22;;;13.30;99.90;;;;;;5107919;28;20471;-41
2021/06/13 05:28:26;;;;;;;16.25;6.35;;;13.30;99.90;;;;;;5108935;28;20079;-41
2021/06/13 05:30:52;;;;;;;11.02;5.75;;;13.40;99.90;;;;;;5108746;28;20126;-36
2021/06/13 05:33:18;;;;;;;8.35;5.22;;;13.40;99.90;;;;;;5108753;28;20011;-44
2021/06/13 05:35:44;;;;;;;11.65;5.85;;;13.50;99.90;;;;;;5108747;28;20122;-42
2021/06/13 05:38:11;;;;;;;8.57;5.03;;;13.60;99.90;;;;;;5108237;28;20026;-39
2021/06/13 05:40:37;;;;;;;12.25;5.78;;;13.60;99.90;;;;;;5108709;28;20023;-42
2021/06/13 05:43:05;;;;;;;11.43;5.15;;;13.60;99.80;;;;;;5108097;28;20478;-43
2021/06/13 05:45:31;;;;;;;9.18;5.38;;;13.70;99.70;;;;;;5108771;28;20443;-38
2021/06/13 05:47:58;;;;;;;11.93;5.50;;;13.80;99.70;;;;;;5107271;28;20030;-39
2021/06/13 05:50:25;;;;;;;14.93;5.65;;;13.80;99.60;;;;;;5108624;28;20024;-40
2021/06/13 05:52:51;;;;;;;11.63;5.65;;;13.90;99.80;;;;;;5108353;28;20046;-39
2021/06/13 05:55:17;;;;;;;12.00;5.88;;;13.90;99.70;;;;;;5107798;28;20024;-40
2021/06/13 05:57:44;;;;;;;8.38;4.78;;;14.00;99.60;;;;;;5108058;28;20114;-39
2021/06/13 06:00:15;;;;;;;10.55;5.38;;;14.00;99.50;;;;;;5108215;28;20081;-40
2021/06/13 06:02:45;;;;;;;7.13;4.65;;;14.10;99.50;;;;;;5107604;28;20016;-39
2021/06/13 06:05:11;;;;;;;11.30;5.60;;;14.10;99.40;;;;;;5107932;28;20034;-38
2021/06/13 06:07:37;;;;;;;14.02;6.10;;;14.20;99.10;;;;;;5108531;27;20058;-40
2021/06/13 06:10:07;;;;;;;13.40;6.13;;;14.20;99.10;;;;;;5107036;27;20615;-40
2021/06/13 06:12:34;;;;;;;13.65;6.38;;;14.30;98.90;;;;;;5108464;28;20022;-36
2021/06/13 06:15:00;;;;;;;11.45;5.05;;;14.40;98.70;;;;;;5107146;28;20214;-40
2021/06/13 06:17:26;;;;;;;9.15;5.05;;;14.40;98.60;;;;;;5108464;28;20072;-40
2021/06/13 06:19:51;;;;;;;14.52;5.10;;;14.40;98.50;;;;;;5108121;28;20043;-40
2021/06/13 06:22:17;;;;;;;10.07;5.10;;;14.50;98.30;;;;;;5107092;28;20015;-39
2021/06/13 06:24:49;;;;;;;9.70;5.18;;;14.50;98.30;;;;;;5107483;28;20406;-39
2021/06/13 06:27:14;;;;;;;9.52;4.25;;;14.50;98.30;;;;;;5107732;28;20031;-38
2021/06/13 06:29:40;;;;;;;12.52;4.75;;;14.50;98.20;;;;;;5106992;28;20057;-40
2021/06/13 06:32:06;;;;;;;7.72;4.60;;;14.50;98.20;;;;;;5107760;28;20055;-40
2021/06/13 06:34:31;;;;;;;11.57;5.60;;;14.50;98.10;;;;;;5107865;28;20051;-38
2021/06/13 06:36:57;;;;;;;7.68;4.55;;;14.50;98.10;;;;;;5107040;28;20083;-39
2021/06/13 06:39:23;;;;;;;8.55;4.10;;;14.60;98.10;;;;;;5107779;28;20024;-41
2021/06/13 06:41:49;;;;;;;7.13;4.00;;;14.60;98.00;;;;;;5107644;28;20102;-41
2021/06/13 06:44:15;;;;;;;5.57;4.28;;;14.60;97.90;;;;;;5107254;28;20019;-42
2021/06/13 06:46:41;;;;;;;6.70;3.58;;;14.60;97.80;;;;;;5107495;28;20546;-39
2021/06/13 06:49:07;;;;;;;8.45;3.80;;;14.70;97.80;;;;;;5107449;28;20118;-37
2021/06/13 06:51:33;;;;;;;7.22;3.78;;;14.70;97.80;;;;;;5106847;28;20102;-40
2021/06/13 06:53:59;;;;;;;6.50;3.88;;;14.80;97.60;;;;;;5107507;28;20113;-41
2021/06/13 06:56:26;;;;;;;6.93;4.13;;;14.80;97.50;;;;;;5107573;28;20016;-43
2021/06/13 06:58:53;;;;;;;9.07;4.32;;;14.90;97.30;;;;;;5107191;28;20406;-40
2021/06/13 07:01:18;;;;;;;7.70;3.60;;;14.90;97.20;;;;;;5107437;28;20016;-40
2021/06/13 07:03:44;;;;;;;6.70;3.50;;;15.00;97.10;;;;;;5107004;28;20368;-40
2021/06/13 07:06:10;;;;;;;9.82;3.90;;;15.10;97.00;;;;;;5107187;28;20042;-40
2021/06/13 07:08:35;;;;;;;6.82;4.15;;;15.20;96.90;;;;;;5107432;27;20506;-40
2021/06/13 07:11:02;;;;;;;5.53;3.28;;;15.30;96.80;;;;;;5106083;28;20076;-39
2021/06/13 07:13:27;;;;;;;8.95;3.75;;;15.40;96.60;;;;;;5108017;28;20051;-39
2021/06/13 07:15:53;;;;;;;6.50;3.63;;;15.50;96.40;;;;;;5107241;28;20039;-38
2021/06/13 07:18:19;;;;;;;10.50;3.75;;;15.60;96.30;;;;;;5104279;28;20119;-39
2021/06/13 07:20:44;;;;;;;8.13;3.47;;;15.70;96.20;;;;;;5105175;28;20024;-40
2021/06/13 07:23:10;;;;;;;6.45;3.53;;;15.80;96.00;;;;;;5105476;28;20103;-42
2021/06/13 07:25:36;;;;;;;7.18;4.10;;;15.90;96.00;;;;;;5106091;28;20084;-39
2021/06/13 07:28:04;;;;;;;6.53;3.10;;;16.00;95.80;;;;;;5105615;28;20062;-40
2021/06/13 07:30:30;;;;;;;4.15;2.92;;;16.00;95.70;;;;;;5106740;28;20032;-39
2021/06/13 07:32:56;;;;;;;4.97;3.10;;;16.00;95.50;;;;;;5105575;28;20065;-39
2021/06/13 07:35:21;;;;;;;8.70;3.60;;;16.10;95.50;;;;;;5106472;28;20032;-39
2021/06/13 07:37:47;;;;;;;5.45;3.03;;;16.10;95.30;;;;;;5106035;28;20080;-39
2021/06/13 07:40:15;;;;;;;6.82;3.60;;;16.20;95.20;;;;;;5105604;28;20576;-39
2021/06/13 07:42:41;;;;;;;5.38;2.88;;;16.40;95.00;;;;;;5106394;28;20020;-38
2021/06/13 07:45:09;;;;;;;6.05;3.40;;;16.50;94.70;;;;;;5106005;28;20031;-41
2021/06/13 07:47:35;;;;;;;6.15;3.22;;;16.50;94.50;;;;;;5105806;28;20022;-39
2021/06/13 07:50:02;;;;;;;6.10;3.70;;;16.60;94.40;;;;;;5105359;28;20074;-37
2021/06/13 07:52:29;;;;;;;6.28;3.72;;;16.60;94.30;;;;;;5106662;28;20031;-40
2021/06/13 07:54:54;;;;;;;5.10;3.58;;;16.60;94.00;;;;;;5093558;28;20024;-40
2021/06/13 07:57:20;;;;;;;6.63;3.72;;;16.70;94.00;;;;;;5106292;28;20497;-41
2021/06/13 07:59:46;;;;;;;6.97;3.55;;;16.70;93.30;;;;;;5106285;28;20031;-41
2021/06/13 08:02:12;;;;;;;9.15;3.22;;;16.70;93.40;;;;;;5105998;28;20136;-37
2021/06/13 08:04:42;;;;;;;7.32;3.58;;;16.70;93.50;;;;;;5105422;28;20015;-40
2021/06/13 08:07:08;;;;;;;7.90;3.85;;;16.70;93.50;;;;;;5107770;28;20059;-42
2021/06/13 08:09:33;;;;;;;7.25;4.07;;;16.70;93.50;;;;;;5106225;28;20097;-40
2021/06/13 08:11:59;;;;;;;6.10;3.70;;;16.70;93.40;;;;;;5106523;28;20534;-40
2021/06/13 08:14:25;;;;;;;6.88;3.40;;;16.80;93.40;;;;;;5106466;28;20030;-39
2021/06/13 08:16:53;;;;;;;6.32;3.50;;;16.90;93.40;;;;;;5106118;28;20069;-39
2021/06/13 08:19:24;;;;;;;6.70;3.17;;;17.00;93.30;;;;;;5102296;28;20054;-40
2021/06/13 08:21:50;;;;;;;6.57;3.42;;;17.10;92.90;;;;;;5106161;28;20023;-38
2021/06/13 08:24:16;;;;;;;7.45;3.80;;;17.30;92.80;;;;;;5109088;28;20035;-39
2021/06/13 08:26:41;;;;;;;7.38;4.55;;;17.40;92.40;;;;;;5109591;28;20048;-40
2021/06/13 08:29:07;;;;;;;6.57;4.70;;;17.50;92.20;;;;;;5109526;27;20024;-40
2021/06/13 08:31:32;;;;;;;8.95;4.63;;;17.70;91.70;;;;;;5109932;28;20045;-38
2021/06/13 08:33:58;;;;;;;6.25;3.75;;;17.80;91.50;;;;;;5109452;28;20371;-41
2021/06/13 08:36:24;;;;;;;8.27;4.00;;;17.90;91.60;;;;;;5109828;28;20043;-39
2021/06/13 08:38:52;;;;;;;5.63;3.40;;;18.00;91.80;;;;;;5109067;28;20020;-40
2021/06/13 08:41:18;;;;;;;7.22;3.67;;;18.10;91.50;;;;;;5109052;28;20024;-40
2021/06/13 08:43:50;;;;;;;7.55;4.28;;;18.10;91.40;;;;;;5108827;28;20023;-39
2021/06/13 08:46:17;;;;;;;6.70;3.33;;;18.20;91.40;;;;;;5109789;28;20488;-39
2021/06/13 08:48:45;;;;;;;4.68;3.58;;;18.10;91.20;;;;;;5109723;28;20224;-39
2021/06/13 08:51:11;;;;;;;6.95;3.70;;;18.10;90.90;;;;;;5108450;28;20046;-38
2021/06/13 08:53:44;;;;;;;9.27;4.13;;;18.00;90.90;;;;;;5109273;28;20467;-40
2021/06/13 08:56:14;;;;;;;9.02;3.67;;;18.00;90.80;;;;;;5109066;28;20031;-40
2021/06/13 08:58:41;;;;;;;5.25;3.40;;;18.00;90.70;;;;;;5109359;28;20019;-38
2021/06/13 09:01:10;;;;;;;7.05;3.45;;;18.10;90.80;;;;;;5109011;28;20030;-39
2021/06/13 09:03:37;;;;;;;5.32;3.63;;;18.10;90.70;;;;;;5109170;28;20059;-42
2021/06/13 09:06:06;;;;;;;6.07;3.40;;;18.10;90.70;;;;;;5108871;28;20030;-45
2021/06/13 09:08:33;;;;;;;8.90;3.42;;;18.10;90.40;;;;;;5109176;28;20020;-37
2021/06/13 09:10:59;;;;;;;6.40;3.60;;;18.20;90.60;;;;;;5107994;28;20036;-40
2021/06/13 09:13:26;;;;;;;5.00;3.83;;;18.30;90.50;;;;;;5109369;28;20360;-42
2021/06/13 09:15:58;;;;;;;8.98;3.95;;;18.40;90.40;;;;;;5108694;28;20035;-40
2021/06/13 09:18:31;;;;;;;6.57;3.30;;;18.40;90.30;;;;;;5108783;28;20024;-42
2021/06/13 09:20:57;;;;;;;7.47;3.53;;;18.40;90.10;;;;;;5108567;28;20012;-39
2021/06/13 09:23:23;;;;;;;7.55;3.63;;;18.40;90.10;;;;;;5109432;28;20069;-42
2021/06/13 09:26:01;;;;;;;5.38;3.45;;;18.50;90.10;;;;;;5107140;28;20044;-40
2021/06/13 09:28:27;;;;;;;8.27;3.42;;;18.50;89.50;;;;;;5109255;28;20356;-37
2021/06/13 09:30:54;;;;;;;5.95;4.05;;;18.60;89.20;;;;;;5108429;28;20487;-39
2021/06/13 09:33:32;;;;;;;6.07;3.70;;;18.70;88.70;;;;;;5108616;28;20024;-39
2021/06/13 09:35:59;;;;;;;7.88;3.70;;;18.70;88.90;;;;;;5108476;28;20106;-38
2021/06/13 09:38:34;;;;;;;7.80;3.35;;;18.70;88.50;;;;;;5108782;28;20054;-39
2021/06/13 09:41:02;;;;;;;10.05;4.05;;;18.60;88.80;;;;;;5107797;28;20044;-44
2021/06/13 09:43:35;;;;;;;5.47;3.25;;;18.70;88.90;;;;;;5108594;28;20034;-39
2021/06/13 09:46:07;;;;;;;4.75;3.15;;;18.60;88.90;;;;;;5107648;28;20114;-39
2021/06/13 09:48:37;;;;;;;6.38;3.20;;;18.60;88.90;;;;;;5108428;28;20023;-39
2021/06/13 09:51:06;;;;;;;8.38;3.67;;;18.60;88.70;;;;;;5107081;28;20097;-38
2021/06/13 09:53:39;;;;;;;7.38;3.47;;;18.50;88.70;;;;;;5107807;28;20061;-41
2021/06/13 09:56:10;;;;;;;5.50;3.35;;;18.60;89.00;;;;;;5108298;28;20489;-40
2021/06/13 09:58:56;;;;;;;7.70;3.78;;;18.60;88.60;;;;;;5105175;28;20385;-39
2021/06/13 10:01:25;;;;;;;6.65;3.38;;;18.70;88.60;;;;;;5106069;28;20050;-40
2021/06/13 10:03:52;;;;;;;6.30;3.63;;;18.70;87.70;;;;;;5107902;28;20032;-40
2021/06/13 10:06:19;;;;;;;7.15;3.63;;;18.70;87.80;;;;;;5108052;28;20102;-39
2021/06/13 10:08:49;;;;;;;6.53;3.72;;;18.80;87.50;;;;;;5107383;28;20019;-39
2021/06/13 10:11:15;;;;;;;7.68;3.72;;;18.80;87.30;;;;;;5107855;27;20089;-40
2021/06/13 10:13:50;;;;;;;7.60;4.15;;;18.90;87.10;;;;;;5108162;28;20066;-40
2021/06/13 10:16:31;;;;;;;7.95;3.78;;;18.90;86.30;;;;;;5108317;28;20102;-40
2021/06/13 10:18:59;;;;;;;6.32;3.80;;;18.90;86.20;;;;;;5105984;28;20016;-40
2021/06/13 10:21:27;;;;;;;7.15;3.65;;;18.90;85.80;;;;;;5107509;28;20366;-40
2021/06/13 10:23:54;;;;;;;7.25;4.03;;;18.90;85.90;;;;;;5107336;28;20023;-44
2021/06/13 10:26:20;;;;;;;6.35;3.90;;;18.90;85.20;;;;;;5107382;28;20039;-40
2021/06/13 10:28:45;;;;;;;5.32;3.38;;;18.90;85.60;;;;;;5109321;27;20100;-40
2021/06/13 10:31:11;;;;;;;7.15;4.93;;;19.10;85.50;;;;;;5106843;28;20336;-44
2021/06/13 10:33:39;;;;;;;5.32;3.40;;;19.20;85.40;;;;;;5106805;28;20492;-38
2021/06/13 10:36:05;;;;;;;4.47;3.08;;;19.40;85.10;;;;;;5106745;28;20141;-40
2021/06/13 10:38:31;;;;;;;6.70;3.45;;;19.50;85.00;;;;;;5107299;28;20461;-39
2021/06/13 10:40:58;;;;;;;4.80;3.47;;;19.50;84.70;;;;;;5106988;28;20012;-40
2021/06/13 10:43:26;;;;;;;4.03;3.13;;;19.50;84.70;;;;;;5106875;28;20020;-40
2021/06/13 10:45:53;;;;;;;6.53;3.33;;;19.50;84.40;;;;;;5106706;28;20031;-40
2021/06/13 10:48:19;;;;;;;6.32;3.53;;;19.60;84.50;;;;;;5106646;28;20028;-40
2021/06/13 10:50:44;;;;;;;7.45;4.25;;;19.60;84.20;;;;;;5106881;28;20035;-39
2021/06/13 10:53:11;;;;;;;8.80;4.25;;;19.70;82.80;;;;;;5107549;28;20031;-38
2021/06/13 10:55:50;;;;;;;8.50;3.80;;;19.60;82.70;;;;;;5106988;28;20080;-40
2021/06/13 10:58:44;;;;;;;7.70;4.22;;;19.60;83.10;;;;;;5106695;28;20566;-39
2021/06/13 11:01:25;;;;;;;6.25;3.30;;;19.70;82.30;;;;;;5106257;28;20363;-39
2021/06/13 11:03:58;;;;;;;4.78;2.97;;;19.80;82.80;;;;;;5090212;28;20027;-40
2021/06/13 11:06:53;;;;;;;5.55;3.38;;;19.90;82.90;;;;;;5106108;28;20035;-40
2021/06/13 11:09:19;;;;;;;6.38;3.20;;;20.00;82.80;;;;;;5105359;28;20080;-38
2021/06/13 11:11:55;;;;;;;5.35;3.00;;;20.00;82.40;;;;;;5106902;28;20397;-39
2021/06/13 11:14:27;;;;;;;8.27;3.90;;;20.00;82.40;;;;;;5107203;28;20562;-39
2021/06/13 11:16:54;;;;;;;8.88;3.90;;;20.00;80.20;;;;;;5106812;28;20023;-39
2021/06/13 11:19:27;;;;;;;5.22;3.08;;;19.90;78.90;;;;;;5106489;28;20022;-42
2021/06/13 11:22:17;;;;;;;4.40;2.90;;;19.90;81.10;;;;;;5096685;28;20092;-40
2021/06/13 11:24:45;;;;;;;3.88;2.60;;;20.00;81.40;;;;;;5106005;28;20180;-40
2021/06/13 11:27:10;;;;;;;4.30;2.75;;;20.10;81.60;;;;;;5107261;28;20034;-40
2021/06/13 11:29:58;;;;;;;6.18;2.80;;;20.30;81.40;;;;;;5106714;28;20039;-38
2021/06/13 11:32:53;;;;;;;7.32;3.38;;;20.40;81.20;;;;;;5097067;28;20431;-39
2021/06/13 11:35:37;;;;;;;6.38;3.50;;;20.60;80.50;;;;;;5105845;28;20112;-40
2021/06/13 11:38:12;;;;;;;5.22;3.08;;;20.80;80.00;;;;;;5106065;28;20073;-39
2021/06/13 11:41:02;;;;;;;6.05;3.22;;;20.80;80.10;;;;;;5107470;28;20079;-38
2021/06/13 11:43:40;;;;;;;7.30;3.30;;;20.90;80.30;;;;;;5106607;28;20023;-39
2021/06/13 11:46:10;;;;;;;5.03;2.83;;;20.90;79.70;;;;;;5106201;28;20119;-39
2021/06/13 11:48:38;;;;;;;6.13;3.33;;;20.90;79.90;;;;;;5107665;28;20114;-40
2021/06/13 11:51:18;;;;;;;5.38;3.75;;;21.00;79.60;;;;;;5105777;28;20592;-40
2021/06/13 11:54:06;;;;;;;6.22;3.92;;;21.10;79.80;;;;;;5106345;28;20070;-40
2021/06/13 11:56:34;;;;;;;7.40;3.83;;;21.20;78.90;;;;;;5106604;28;20016;-37
2021/06/13 11:59:02;;;;;;;6.10;3.53;;;21.20;78.80;;;;;;5110195;28;20828;-40
2021/06/13 12:01:28;;;;;;;6.90;3.55;;;21.30;79.00;;;;;;5110120;28;20077;-39
2021/06/13 12:03:56;;;;;;;7.13;3.17;;;21.40;78.80;;;;;;5110206;28;20092;-43
2021/06/13 12:06:25;;;;;;;6.03;3.17;;;21.50;78.40;;;;;;5110252;28;20068;-39
2021/06/13 12:08:53;;;;;;;3.85;2.90;;;21.50;78.30;;;;;;5109960;28;20121;-39
2021/06/13 12:11:30;;;;;;;7.80;3.40;;;21.40;77.80;;;;;;5110288;28;20055;-45
2021/06/13 12:13:57;;;;;;;7.97;3.00;;;21.50;77.60;;;;;;5109551;28;20027;-40
2021/06/13 12:16:23;;;;;;;5.10;3.10;;;21.40;76.80;;;;;;5110244;27;20031;-45
2021/06/13 12:19:03;;;;;;;6.03;2.70;;;21.30;75.60;;;;;;5110011;28;20027;-40
2021/06/13 12:21:29;;;;;;;4.90;3.00;;;21.30;76.10;;;;;;5109524;28;20092;-40
2021/06/13 12:24:14;;;;;;;4.97;3.17;;;21.30;76.00;;;;;;5109563;28;20031;-40
2021/06/13 12:29:26;;;;;;;6.05;2.72;;;21.40;74.90;;;;;;5109863;28;20078;-39
2021/06/13 12:31:52;;;;;;;4.35;2.75;;;21.50;75.10;;;;;;5109790;28;20026;-39
2021/06/13 12:34:22;;;;;;;4.28;3.00;;;21.50;75.30;;;;;;5110012;28;20062;-39
2021/06/13 12:36:53;;;;;;;3.08;2.30;;;21.50;75.20;;;;;;5109476;28;20020;-40
2021/06/13 12:39:29;;;;;;;5.50;2.67;;;21.60;75.10;;;;;;5109737;28;20463;-40
2021/06/13 12:42:12;;;;;;;3.95;3.00;;;21.70;74.10;;;;;;5108820;28;20032;-39
2021/06/13 12:44:38;;;;;;;;;;;21.80;73.90;;;;;;5099790;28;20035;-43
2021/06/13 12:47:06;;;;;;;4.63;2.50;;;21.80;73.90;;;;;;5109629;28;19955;-39
2021/06/13 12:49:44;;;;;;;7.03;3.10;;;21.80;73.80;;;;;;5109159;28;20429;-38
2021/06/13 12:52:15;;;;;;;4.22;2.65;;;21.90;67.80;;;;;;5109267;28;20032;-39
2021/06/13 12:54:42;;;;;;;4.78;2.90;;;21.80;66.40;;;;;;5109770;28;20144;-38
2021/06/13 12:57:09;;;;;;;3.78;2.58;;;21.70;67.30;;;;;;5108838;28;20027;-38